sensor_id;sensor_type;location;lat;lon;timestamp;P1;durP1;ratioP1;P2;durP2;ratioP2
32196;SDS011;18697;42.770;23.400;2023-04-03T00:00:02;23.08;;;12.05;;
32196;SDS011;18697;42.770;23.400;2023-04-03T00:02:29;25.48;;;13.93;;
32196;SDS011;18697;42.770;23.400;2023-04-03T00:04:55;24.33;;;13.20;;
32196;SDS011;18697;42.770;23.400;2023-04-03T00:09:46;24.13;;;13.68;;
32196;SDS011;18697;42.770;23.400;2023-04-03T00:14:38;28.50;;;14.73;;
32196;SDS011;18697;42.770;23.400;2023-04-03T00:17:03;28.75;;;14.48;;
32196;SDS011;18697;42.770;23.400;2023-04-03T00:19:28;22.33;;;13.38;;
32196;SDS011;18697;42.770;23.400;2023-04-03T00:21:54;25.95;;;15.48;;
32196;SDS011;18697;42.770;23.400;2023-04-03T00:24:19;31.08;;;16.65;;
32196;SDS011;18697;42.770;23.400;2023-04-03T00:26:45;25.83;;;13.70;;
32196;SDS011;18697;42.770;23.400;2023-04-03T00:29:10;30.08;;;15.10;;
32196;SDS011;18697;42.770;23.400;2023-04-03T00:34:01;23.02;;;13.27;;
32196;SDS011;18697;42.770;23.400;2023-04-03T00:36:26;22.70;;;13.23;;
32196;SDS011;18697;42.770;23.400;2023-04-03T00:38:51;25.95;;;13.88;;
32196;SDS011;18697;42.770;23.400;2023-04-03T00:41:17;27.27;;;13.77;;
32196;SDS011;18697;42.770;23.400;2023-04-03T00:43:42;25.83;;;13.60;;
32196;SDS011;18697;42.770;23.400;2023-04-03T00:46:08;21.35;;;13.38;;
32196;SDS011;18697;42.770;23.400;2023-04-03T00:51:02;26.25;;;14.23;;
32196;SDS011;18697;42.770;23.400;2023-04-03T00:53:36;30.67;;;16.33;;
32196;SDS011;18697;42.770;23.400;2023-04-03T00:58:37;34.78;;;17.98;;
32196;SDS011;18697;42.770;23.400;2023-04-03T01:01:08;27.17;;;15.13;;
32196;SDS011;18697;42.770;23.400;2023-04-03T01:03:37;27.08;;;14.45;;
32196;SDS011;18697;42.770;23.400;2023-04-03T01:06:03;29.30;;;14.68;;
32196;SDS011;18697;42.770;23.400;2023-04-03T01:08:28;26.30;;;13.48;;
32196;SDS011;18697;42.770;23.400;2023-04-03T01:10:54;27.38;;;15.27;;
32196;SDS011;18697;42.770;23.400;2023-04-03T01:13:31;28.65;;;14.60;;
32196;SDS011;18697;42.770;23.400;2023-04-03T01:16:00;24.40;;;12.55;;
32196;SDS011;18697;42.770;23.400;2023-04-03T01:26:14;15.43;;;9.00;;
32196;SDS011;18697;42.770;23.400;2023-04-03T01:28:40;13.32;;;7.85;;
32196;SDS011;18697;42.770;23.400;2023-04-03T01:33:40;12.13;;;8.27;;
32196;SDS011;18697;42.770;23.400;2023-04-03T01:36:06;13.88;;;8.75;;
32196;SDS011;18697;42.770;23.400;2023-04-03T01:38:32;16.33;;;8.43;;
32196;SDS011;18697;42.770;23.400;2023-04-03T01:40:57;16.48;;;8.73;;
32196;SDS011;18697;42.770;23.400;2023-04-03T01:45:48;16.27;;;9.45;;
32196;SDS011;18697;42.770;23.400;2023-04-03T01:48:17;16.50;;;10.63;;
32196;SDS011;18697;42.770;23.400;2023-04-03T01:50:43;21.00;;;11.95;;
32196;SDS011;18697;42.770;23.400;2023-04-03T01:53:08;22.77;;;11.57;;
32196;SDS011;18697;42.770;23.400;2023-04-03T01:55:34;21.73;;;12.02;;
32196;SDS011;18697;42.770;23.400;2023-04-03T01:57:59;19.35;;;11.40;;
32196;SDS011;18697;42.770;23.400;2023-04-03T02:00:24;21.38;;;11.57;;
32196;SDS011;18697;42.770;23.400;2023-04-03T02:02:51;20.15;;;10.90;;
32196;SDS011;18697;42.770;23.400;2023-04-03T02:05:16;17.88;;;10.50;;
32196;SDS011;18697;42.770;23.400;2023-04-03T02:07:42;17.40;;;10.98;;
32196;SDS011;18697;42.770;23.400;2023-04-03T02:12:33;16.42;;;8.52;;
32196;SDS011;18697;42.770;23.400;2023-04-03T02:14:58;15.00;;;9.13;;
32196;SDS011;18697;42.770;23.400;2023-04-03T02:17:23;20.02;;;10.73;;
32196;SDS011;18697;42.770;23.400;2023-04-03T02:19:49;16.95;;;10.27;;
32196;SDS011;18697;42.770;23.400;2023-04-03T02:22:14;14.65;;;9.43;;
32196;SDS011;18697;42.770;23.400;2023-04-03T02:24:40;15.95;;;9.60;;
32196;SDS011;18697;42.770;23.400;2023-04-03T02:27:06;21.20;;;10.68;;
32196;SDS011;18697;42.770;23.400;2023-04-03T02:29:31;15.90;;;9.75;;
32196;SDS011;18697;42.770;23.400;2023-04-03T02:31:57;17.15;;;10.02;;
32196;SDS011;18697;42.770;23.400;2023-04-03T02:34:22;17.80;;;10.05;;
32196;SDS011;18697;42.770;23.400;2023-04-03T02:36:48;17.35;;;10.35;;
32196;SDS011;18697;42.770;23.400;2023-04-03T02:39:13;21.25;;;10.75;;
32196;SDS011;18697;42.770;23.400;2023-04-03T02:41:38;20.55;;;11.48;;
32196;SDS011;18697;42.770;23.400;2023-04-03T02:44:05;20.38;;;11.40;;
32196;SDS011;18697;42.770;23.400;2023-04-03T02:46:31;19.90;;;12.13;;
32196;SDS011;18697;42.770;23.400;2023-04-03T02:48:57;19.17;;;12.02;;
32196;SDS011;18697;42.770;23.400;2023-04-03T02:51:22;20.63;;;12.65;;
32196;SDS011;18697;42.770;23.400;2023-04-03T02:53:48;24.65;;;13.95;;
32196;SDS011;18697;42.770;23.400;2023-04-03T02:56:14;22.17;;;13.45;;
32196;SDS011;18697;42.770;23.400;2023-04-03T02:58:40;24.75;;;14.90;;
32196;SDS011;18697;42.770;23.400;2023-04-03T03:01:05;39.38;;;21.38;;
32196;SDS011;18697;42.770;23.400;2023-04-03T03:03:31;38.22;;;21.08;;
32196;SDS011;18697;42.770;23.400;2023-04-03T03:06:04;35.28;;;18.60;;
32196;SDS011;18697;42.770;23.400;2023-04-03T03:08:34;21.73;;;15.00;;
32196;SDS011;18697;42.770;23.400;2023-04-03T03:11:00;19.95;;;13.05;;
32196;SDS011;18697;42.770;23.400;2023-04-03T03:13:26;24.23;;;13.82;;
32196;SDS011;18697;42.770;23.400;2023-04-03T03:15:51;26.70;;;15.65;;
32196;SDS011;18697;42.770;23.400;2023-04-03T03:18:17;33.05;;;16.52;;
32196;SDS011;18697;42.770;23.400;2023-04-03T03:20:42;21.10;;;12.63;;
32196;SDS011;18697;42.770;23.400;2023-04-03T03:23:08;17.73;;;11.15;;
32196;SDS011;18697;42.770;23.400;2023-04-03T03:25:33;17.30;;;11.50;;
32196;SDS011;18697;42.770;23.400;2023-04-03T03:28:02;16.48;;;11.10;;
32196;SDS011;18697;42.770;23.400;2023-04-03T03:30:27;16.65;;;10.63;;
32196;SDS011;18697;42.770;23.400;2023-04-03T03:32:53;16.70;;;10.00;;
32196;SDS011;18697;42.770;23.400;2023-04-03T03:35:18;19.80;;;8.80;;
32196;SDS011;18697;42.770;23.400;2023-04-03T03:37:44;15.98;;;8.63;;
32196;SDS011;18697;42.770;23.400;2023-04-03T03:40:09;13.40;;;8.55;;
32196;SDS011;18697;42.770;23.400;2023-04-03T03:42:36;13.38;;;9.57;;
32196;SDS011;18697;42.770;23.400;2023-04-03T03:45:02;21.17;;;10.20;;
32196;SDS011;18697;42.770;23.400;2023-04-03T03:47:27;19.35;;;9.98;;
32196;SDS011;18697;42.770;23.400;2023-04-03T03:49:53;17.95;;;10.13;;
32196;SDS011;18697;42.770;23.400;2023-04-03T03:54:43;13.68;;;8.00;;
32196;SDS011;18697;42.770;23.400;2023-04-03T03:59:34;16.80;;;10.57;;
32196;SDS011;18697;42.770;23.400;2023-04-03T04:02:00;20.85;;;13.88;;
32196;SDS011;18697;42.770;23.400;2023-04-03T04:04:25;12.63;;;8.30;;
32196;SDS011;18697;42.770;23.400;2023-04-03T04:06:51;21.00;;;10.23;;
32196;SDS011;18697;42.770;23.400;2023-04-03T04:09:16;13.50;;;8.38;;
32196;SDS011;18697;42.770;23.400;2023-04-03T04:11:42;17.38;;;11.32;;
32196;SDS011;18697;42.770;23.400;2023-04-03T04:14:07;17.08;;;9.48;;
32196;SDS011;18697;42.770;23.400;2023-04-03T04:16:35;25.75;;;11.30;;
32196;SDS011;18697;42.770;23.400;2023-04-03T04:19:00;23.77;;;8.90;;
32196;SDS011;18697;42.770;23.400;2023-04-03T04:21:26;15.52;;;7.47;;
32196;SDS011;18697;42.770;23.400;2023-04-03T04:23:51;11.77;;;7.57;;
32196;SDS011;18697;42.770;23.400;2023-04-03T04:26:17;15.35;;;8.30;;
32196;SDS011;18697;42.770;23.400;2023-04-03T04:28:42;13.82;;;8.73;;
32196;SDS011;18697;42.770;23.400;2023-04-03T04:31:07;16.98;;;8.70;;
32196;SDS011;18697;42.770;23.400;2023-04-03T04:33:33;16.73;;;10.32;;
32196;SDS011;18697;42.770;23.400;2023-04-03T04:35:58;21.38;;;10.50;;
32196;SDS011;18697;42.770;23.400;2023-04-03T04:38:24;20.15;;;9.98;;
32196;SDS011;18697;42.770;23.400;2023-04-03T04:40:49;24.48;;;10.13;;
32196;SDS011;18697;42.770;23.400;2023-04-03T04:43:14;19.85;;;9.30;;
32196;SDS011;18697;42.770;23.400;2023-04-03T04:45:41;13.85;;;9.60;;
32196;SDS011;18697;42.770;23.400;2023-04-03T04:48:07;19.85;;;10.40;;
32196;SDS011;18697;42.770;23.400;2023-04-03T04:50:32;19.08;;;10.52;;
32196;SDS011;18697;42.770;23.400;2023-04-03T04:55:23;18.40;;;9.88;;
32196;SDS011;18697;42.770;23.400;2023-04-03T04:57:49;17.67;;;10.02;;
32196;SDS011;18697;42.770;23.400;2023-04-03T05:00:14;14.50;;;8.45;;
32196;SDS011;18697;42.770;23.400;2023-04-03T05:02:40;16.80;;;8.57;;
32196;SDS011;18697;42.770;23.400;2023-04-03T05:05:06;12.77;;;8.98;;
32196;SDS011;18697;42.770;23.400;2023-04-03T05:07:31;20.98;;;10.10;;
32196;SDS011;18697;42.770;23.400;2023-04-03T05:09:57;22.17;;;12.18;;
32196;SDS011;18697;42.770;23.400;2023-04-03T05:12:23;12.27;;;8.48;;
32196;SDS011;18697;42.770;23.400;2023-04-03T05:14:48;13.68;;;8.55;;
32196;SDS011;18697;42.770;23.400;2023-04-03T05:17:14;15.82;;;8.52;;
32196;SDS011;18697;42.770;23.400;2023-04-03T05:19:39;14.30;;;8.07;;
32196;SDS011;18697;42.770;23.400;2023-04-03T05:22:05;35.83;;;17.90;;
32196;SDS011;18697;42.770;23.400;2023-04-03T05:24:31;16.50;;;10.20;;
32196;SDS011;18697;42.770;23.400;2023-04-03T05:26:56;15.48;;;8.93;;
32196;SDS011;18697;42.770;23.400;2023-04-03T05:29:21;12.25;;;9.13;;
32196;SDS011;18697;42.770;23.400;2023-04-03T05:31:48;15.05;;;8.43;;
32196;SDS011;18697;42.770;23.400;2023-04-03T05:34:15;13.48;;;8.57;;
32196;SDS011;18697;42.770;23.400;2023-04-03T05:36:41;11.63;;;8.60;;
32196;SDS011;18697;42.770;23.400;2023-04-03T05:39:06;12.05;;;9.23;;
32196;SDS011;18697;42.770;23.400;2023-04-03T05:41:32;14.60;;;8.23;;
32196;SDS011;18697;42.770;23.400;2023-04-03T05:43:57;14.43;;;9.23;;
32196;SDS011;18697;42.770;23.400;2023-04-03T05:46:22;13.07;;;9.07;;
32196;SDS011;18697;42.770;23.400;2023-04-03T05:48:48;15.98;;;9.15;;
32196;SDS011;18697;42.770;23.400;2023-04-03T05:53:41;26.63;;;14.52;;
32196;SDS011;18697;42.770;23.400;2023-04-03T05:56:06;27.00;;;13.25;;
32196;SDS011;18697;42.770;23.400;2023-04-03T05:58:31;25.63;;;14.15;;
32196;SDS011;18697;42.770;23.400;2023-04-03T06:03:22;29.27;;;15.70;;
32196;SDS011;18697;42.770;23.400;2023-04-03T06:05:48;30.73;;;16.25;;
32196;SDS011;18697;42.770;23.400;2023-04-03T06:08:14;41.17;;;20.80;;
32196;SDS011;18697;42.770;23.400;2023-04-03T06:10:40;47.17;;;22.33;;
32196;SDS011;18697;42.770;23.400;2023-04-03T06:13:05;40.33;;;20.75;;
32196;SDS011;18697;42.770;23.400;2023-04-03T06:15:31;46.35;;;22.65;;
32196;SDS011;18697;42.770;23.400;2023-04-03T06:20:22;57.80;;;24.63;;
32196;SDS011;18697;42.770;23.400;2023-04-03T06:22:47;52.92;;;22.10;;
32196;SDS011;18697;42.770;23.400;2023-04-03T06:27:39;23.05;;;12.32;;
32196;SDS011;18697;42.770;23.400;2023-04-03T06:30:05;19.50;;;11.55;;
32196;SDS011;18697;42.770;23.400;2023-04-03T06:32:32;20.48;;;11.38;;
32196;SDS011;18697;42.770;23.400;2023-04-03T06:34:57;22.10;;;11.82;;
32196;SDS011;18697;42.770;23.400;2023-04-03T06:39:51;33.10;;;18.60;;
32196;SDS011;18697;42.770;23.400;2023-04-03T06:42:17;31.55;;;19.58;;
32196;SDS011;18697;42.770;23.400;2023-04-03T06:44:43;26.27;;;13.93;;
32196;SDS011;18697;42.770;23.400;2023-04-03T06:47:12;15.45;;;9.77;;
32196;SDS011;18697;42.770;23.400;2023-04-03T06:49:39;12.02;;;8.23;;
32196;SDS011;18697;42.770;23.400;2023-04-03T06:52:05;11.70;;;7.40;;
32196;SDS011;18697;42.770;23.400;2023-04-03T06:54:30;12.48;;;8.45;;
32196;SDS011;18697;42.770;23.400;2023-04-03T06:56:56;16.30;;;8.38;;
32196;SDS011;18697;42.770;23.400;2023-04-03T07:01:47;12.88;;;9.00;;
32196;SDS011;18697;42.770;23.400;2023-04-03T07:04:13;13.75;;;9.60;;
32196;SDS011;18697;42.770;23.400;2023-04-03T07:06:39;12.27;;;9.82;;
32196;SDS011;18697;42.770;23.400;2023-04-03T07:09:05;14.45;;;9.95;;
32196;SDS011;18697;42.770;23.400;2023-04-03T07:11:31;16.17;;;9.82;;
32196;SDS011;18697;42.770;23.400;2023-04-03T07:13:56;52.33;;;33.42;;
32196;SDS011;18697;42.770;23.400;2023-04-03T07:16:21;18.83;;;10.15;;
32196;SDS011;18697;42.770;23.400;2023-04-03T07:18:47;11.00;;;8.13;;
32196;SDS011;18697;42.770;23.400;2023-04-03T07:21:13;14.00;;;8.75;;
32196;SDS011;18697;42.770;23.400;2023-04-03T07:23:38;11.75;;;7.65;;
32196;SDS011;18697;42.770;23.400;2023-04-03T07:28:29;16.80;;;8.73;;
32196;SDS011;18697;42.770;23.400;2023-04-03T07:31:03;20.13;;;9.25;;
32196;SDS011;18697;42.770;23.400;2023-04-03T07:33:31;31.75;;;16.42;;
32196;SDS011;18697;42.770;23.400;2023-04-03T07:35:57;21.35;;;12.52;;
32196;SDS011;18697;42.770;23.400;2023-04-03T07:38:22;16.08;;;9.75;;
32196;SDS011;18697;42.770;23.400;2023-04-03T07:40:48;17.08;;;9.60;;
32196;SDS011;18697;42.770;23.400;2023-04-03T07:43:16;15.07;;;8.80;;
32196;SDS011;18697;42.770;23.400;2023-04-03T07:45:42;11.20;;;8.88;;
32196;SDS011;18697;42.770;23.400;2023-04-03T07:48:08;10.73;;;7.10;;
32196;SDS011;18697;42.770;23.400;2023-04-03T07:50:35;8.57;;;6.40;;
32196;SDS011;18697;42.770;23.400;2023-04-03T07:53:01;13.50;;;8.40;;
32196;SDS011;18697;42.770;23.400;2023-04-03T07:55:26;17.63;;;9.30;;
32196;SDS011;18697;42.770;23.400;2023-04-03T08:00:17;14.23;;;8.60;;
32196;SDS011;18697;42.770;23.400;2023-04-03T08:02:44;17.98;;;8.60;;
32196;SDS011;18697;42.770;23.400;2023-04-03T08:05:15;13.43;;;8.15;;
32196;SDS011;18697;42.770;23.400;2023-04-03T08:07:41;12.38;;;8.38;;
32196;SDS011;18697;42.770;23.400;2023-04-03T08:10:06;25.75;;;12.65;;
32196;SDS011;18697;42.770;23.400;2023-04-03T08:14:59;25.67;;;12.45;;
32196;SDS011;18697;42.770;23.400;2023-04-03T08:17:25;20.00;;;10.27;;
32196;SDS011;18697;42.770;23.400;2023-04-03T08:19:51;17.45;;;8.43;;
32196;SDS011;18697;42.770;23.400;2023-04-03T08:22:16;14.52;;;8.93;;
32196;SDS011;18697;42.770;23.400;2023-04-03T08:24:41;15.77;;;8.30;;
32196;SDS011;18697;42.770;23.400;2023-04-03T08:27:07;13.32;;;8.45;;
32196;SDS011;18697;42.770;23.400;2023-04-03T08:29:32;11.65;;;8.07;;
32196;SDS011;18697;42.770;23.400;2023-04-03T08:34:23;19.58;;;11.20;;
32196;SDS011;18697;42.770;23.400;2023-04-03T08:46:13;9.93;;;7.72;;
32196;SDS011;18697;42.770;23.400;2023-04-03T08:48:42;12.43;;;8.23;;
32196;SDS011;18697;42.770;23.400;2023-04-03T08:51:10;15.70;;;7.80;;
32196;SDS011;18697;42.770;23.400;2023-04-03T08:53:41;13.10;;;7.72;;
32196;SDS011;18697;42.770;23.400;2023-04-03T08:56:11;14.13;;;7.70;;
32196;SDS011;18697;42.770;23.400;2023-04-03T08:58:50;9.50;;;6.28;;
32196;SDS011;18697;42.770;23.400;2023-04-03T09:01:23;9.30;;;6.78;;
32196;SDS011;18697;42.770;23.400;2023-04-03T09:03:53;17.05;;;8.10;;
32196;SDS011;18697;42.770;23.400;2023-04-03T09:06:23;8.60;;;6.22;;
32196;SDS011;18697;42.770;23.400;2023-04-03T09:14:38;15.65;;;7.07;;
32196;SDS011;18697;42.770;23.400;2023-04-03T09:25:27;10.23;;;6.10;;
32196;SDS011;18697;42.770;23.400;2023-04-03T09:27:59;10.95;;;7.10;;
32196;SDS011;18697;42.770;23.400;2023-04-03T09:30:25;16.63;;;7.40;;
32196;SDS011;18697;42.770;23.400;2023-04-03T09:32:53;13.52;;;7.28;;
32196;SDS011;18697;42.770;23.400;2023-04-03T09:35:34;13.13;;;7.35;;
32196;SDS011;18697;42.770;23.400;2023-04-03T09:45:41;11.73;;;8.68;;
32196;SDS011;18697;42.770;23.400;2023-04-03T09:53:35;14.60;;;7.57;;
32196;SDS011;18697;42.770;23.400;2023-04-03T09:56:03;11.75;;;8.60;;
32196;SDS011;18697;42.770;23.400;2023-04-03T09:58:45;11.93;;;7.63;;
32196;SDS011;18697;42.770;23.400;2023-04-03T10:09:00;12.40;;;6.93;;
32196;SDS011;18697;42.770;23.400;2023-04-03T10:11:31;12.30;;;6.72;;
32196;SDS011;18697;42.770;23.400;2023-04-03T10:13:57;32.03;;;15.23;;
32196;SDS011;18697;42.770;23.400;2023-04-03T10:19:05;13.07;;;7.57;;
32196;SDS011;18697;42.770;23.400;2023-04-03T10:21:46;23.45;;;13.80;;
32196;SDS011;18697;42.770;23.400;2023-04-03T10:24:18;28.15;;;14.70;;
32196;SDS011;18697;42.770;23.400;2023-04-03T10:52:17;10.32;;;5.18;;
32196;SDS011;18697;42.770;23.400;2023-04-03T10:55:14;9.35;;;6.15;;
32196;SDS011;18697;42.770;23.400;2023-04-03T10:57:42;8.35;;;5.43;;
32196;SDS011;18697;42.770;23.400;2023-04-03T11:00:15;10.10;;;6.32;;
32196;SDS011;18697;42.770;23.400;2023-04-03T11:07:55;9.73;;;4.55;;
32196;SDS011;18697;42.770;23.400;2023-04-03T11:10:46;6.75;;;4.20;;
32196;SDS011;18697;42.770;23.400;2023-04-03T11:13:14;12.63;;;5.20;;
32196;SDS011;18697;42.770;23.400;2023-04-03T11:15:44;12.48;;;4.65;;
32196;SDS011;18697;42.770;23.400;2023-04-03T11:18:15;9.52;;;5.18;;
32196;SDS011;18697;42.770;23.400;2023-04-03T11:21:00;6.53;;;4.47;;
32196;SDS011;18697;42.770;23.400;2023-04-03T11:23:36;7.40;;;5.25;;
32196;SDS011;18697;42.770;23.400;2023-04-03T11:26:12;11.40;;;5.32;;
32196;SDS011;18697;42.770;23.400;2023-04-03T11:28:39;9.00;;;5.72;;
32196;SDS011;18697;42.770;23.400;2023-04-03T11:36:47;13.10;;;9.52;;
32196;SDS011;18697;42.770;23.400;2023-04-03T11:41:45;14.48;;;9.02;;
32196;SDS011;18697;42.770;23.400;2023-04-03T11:46:56;69.93;;;55.28;;
32196;SDS011;18697;42.770;23.400;2023-04-03T12:05:48;12.52;;;10.30;;
32196;SDS011;18697;42.770;23.400;2023-04-03T12:08:24;10.40;;;8.55;;
32196;SDS011;18697;42.770;23.400;2023-04-03T12:16:04;18.98;;;13.18;;
32196;SDS011;18697;42.770;23.400;2023-04-03T12:21:07;18.40;;;13.40;;
32196;SDS011;18697;42.770;23.400;2023-04-03T12:23:34;17.00;;;13.30;;
32196;SDS011;18697;42.770;23.400;2023-04-03T12:28:46;14.48;;;10.82;;
32196;SDS011;18697;42.770;23.400;2023-04-03T12:31:16;25.70;;;13.70;;
32196;SDS011;18697;42.770;23.400;2023-04-03T12:36:59;29.55;;;17.52;;
32196;SDS011;18697;42.770;23.400;2023-04-03T12:47:28;13.93;;;10.65;;
32196;SDS011;18697;42.770;23.400;2023-04-03T12:49:59;21.20;;;12.45;;
32196;SDS011;18697;42.770;23.400;2023-04-03T12:52:40;17.05;;;12.18;;
32196;SDS011;18697;42.770;23.400;2023-04-03T12:55:14;10.63;;;7.57;;
32196;SDS011;18697;42.770;23.400;2023-04-03T12:57:43;14.95;;;8.32;;
32196;SDS011;18697;42.770;23.400;2023-04-03T13:03:22;6.63;;;4.82;;
32196;SDS011;18697;42.770;23.400;2023-04-03T13:05:50;8.30;;;4.63;;
32196;SDS011;18697;42.770;23.400;2023-04-03T13:08:16;5.80;;;3.40;;
32196;SDS011;18697;42.770;23.400;2023-04-03T13:10:49;9.52;;;7.82;;
32196;SDS011;18697;42.770;23.400;2023-04-03T13:15:48;12.70;;;7.05;;
32196;SDS011;18697;42.770;23.400;2023-04-03T13:21:17;11.38;;;7.40;;
32196;SDS011;18697;42.770;23.400;2023-04-03T13:23:48;14.52;;;8.43;;
32196;SDS011;18697;42.770;23.400;2023-04-03T13:26:17;10.52;;;5.18;;
32196;SDS011;18697;42.770;23.400;2023-04-03T13:28:45;8.55;;;5.55;;
32196;SDS011;18697;42.770;23.400;2023-04-03T13:33:39;12.75;;;6.88;;
32196;SDS011;18697;42.770;23.400;2023-04-03T13:36:18;21.52;;;9.85;;
32196;SDS011;18697;42.770;23.400;2023-04-03T13:38:46;21.38;;;9.48;;
32196;SDS011;18697;42.770;23.400;2023-04-03T13:41:29;18.88;;;9.23;;
32196;SDS011;18697;42.770;23.400;2023-04-03T13:46:47;20.20;;;8.77;;
32196;SDS011;18697;42.770;23.400;2023-04-03T13:49:20;34.42;;;19.65;;
32196;SDS011;18697;42.770;23.400;2023-04-03T13:51:51;20.92;;;12.60;;
32196;SDS011;18697;42.770;23.400;2023-04-03T13:54:19;19.48;;;11.02;;
32196;SDS011;18697;42.770;23.400;2023-04-03T13:56:56;24.48;;;13.45;;
32196;SDS011;18697;42.770;23.400;2023-04-03T13:59:24;17.25;;;10.90;;
32196;SDS011;18697;42.770;23.400;2023-04-03T14:04:29;22.30;;;11.75;;
32196;SDS011;18697;42.770;23.400;2023-04-03T14:06:57;44.92;;;20.17;;
32196;SDS011;18697;42.770;23.400;2023-04-03T14:09:24;39.22;;;21.23;;
32196;SDS011;18697;42.770;23.400;2023-04-03T14:11:54;41.13;;;23.42;;
32196;SDS011;18697;42.770;23.400;2023-04-03T14:14:27;56.42;;;33.78;;
32196;SDS011;18697;42.770;23.400;2023-04-03T14:16:59;44.17;;;27.25;;
32196;SDS011;18697;42.770;23.400;2023-04-03T14:19:27;50.65;;;31.42;;
32196;SDS011;18697;42.770;23.400;2023-04-03T14:21:56;35.15;;;22.00;;
32196;SDS011;18697;42.770;23.400;2023-04-03T14:24:21;41.05;;;24.10;;
32196;SDS011;18697;42.770;23.400;2023-04-03T14:26:49;45.58;;;28.08;;
32196;SDS011;18697;42.770;23.400;2023-04-03T14:29:17;32.85;;;22.48;;
32196;SDS011;18697;42.770;23.400;2023-04-03T14:31:44;39.80;;;25.33;;
32196;SDS011;18697;42.770;23.400;2023-04-03T14:34:11;27.27;;;17.95;;
32196;SDS011;18697;42.770;23.400;2023-04-03T14:36:37;23.45;;;15.27;;
32196;SDS011;18697;42.770;23.400;2023-04-03T14:39:04;24.92;;;15.77;;
32196;SDS011;18697;42.770;23.400;2023-04-03T14:41:30;30.00;;;14.43;;
32196;SDS011;18697;42.770;23.400;2023-04-03T14:43:55;14.93;;;9.82;;
32196;SDS011;18697;42.770;23.400;2023-04-03T14:49:01;18.63;;;10.15;;
32196;SDS011;18697;42.770;23.400;2023-04-03T14:51:27;20.88;;;12.88;;
32196;SDS011;18697;42.770;23.400;2023-04-03T14:53:53;14.68;;;9.10;;
32196;SDS011;18697;42.770;23.400;2023-04-03T14:56:25;19.60;;;11.63;;
32196;SDS011;18697;42.770;23.400;2023-04-03T14:58:56;35.17;;;19.67;;
32196;SDS011;18697;42.770;23.400;2023-04-03T15:01:24;22.75;;;11.45;;
32196;SDS011;18697;42.770;23.400;2023-04-03T15:03:49;15.25;;;8.88;;
32196;SDS011;18697;42.770;23.400;2023-04-03T15:06:15;18.08;;;10.95;;
32196;SDS011;18697;42.770;23.400;2023-04-03T15:11:07;23.98;;;13.55;;
32196;SDS011;18697;42.770;23.400;2023-04-03T15:13:35;16.98;;;12.70;;
32196;SDS011;18697;42.770;23.400;2023-04-03T15:16:00;19.10;;;13.95;;
32196;SDS011;18697;42.770;23.400;2023-04-03T15:18:27;29.65;;;18.80;;
32196;SDS011;18697;42.770;23.400;2023-04-03T15:20:55;24.33;;;15.35;;
32196;SDS011;18697;42.770;23.400;2023-04-03T15:23:21;22.20;;;13.63;;
32196;SDS011;18697;42.770;23.400;2023-04-03T15:25:50;27.13;;;15.88;;
32196;SDS011;18697;42.770;23.400;2023-04-03T15:28:51;26.33;;;14.48;;
32196;SDS011;18697;42.770;23.400;2023-04-03T15:31:09;34.50;;;20.52;;
32196;SDS011;18697;42.770;23.400;2023-04-03T15:33:36;20.02;;;14.20;;
32196;SDS011;18697;42.770;23.400;2023-04-03T15:36:02;38.28;;;21.00;;
32196;SDS011;18697;42.770;23.400;2023-04-03T15:38:28;27.23;;;16.40;;
32196;SDS011;18697;42.770;23.400;2023-04-03T15:40:53;28.30;;;18.10;;
32196;SDS011;18697;42.770;23.400;2023-04-03T15:43:20;34.28;;;20.40;;
32196;SDS011;18697;42.770;23.400;2023-04-03T15:45:46;31.77;;;19.08;;
32196;SDS011;18697;42.770;23.400;2023-04-03T15:48:11;30.55;;;18.25;;
32196;SDS011;18697;42.770;23.400;2023-04-03T15:50:38;41.35;;;25.15;;
32196;SDS011;18697;42.770;23.400;2023-04-03T15:53:04;28.20;;;15.63;;
32196;SDS011;18697;42.770;23.400;2023-04-03T15:55:30;29.35;;;19.35;;
32196;SDS011;18697;42.770;23.400;2023-04-03T15:57:57;40.28;;;24.50;;
32196;SDS011;18697;42.770;23.400;2023-04-03T16:00:24;53.50;;;29.70;;
32196;SDS011;18697;42.770;23.400;2023-04-03T16:02:51;61.88;;;33.40;;
32196;SDS011;18697;42.770;23.400;2023-04-03T16:05:19;47.65;;;27.75;;
32196;SDS011;18697;42.770;23.400;2023-04-03T16:07:45;55.80;;;29.40;;
32196;SDS011;18697;42.770;23.400;2023-04-03T16:12:37;66.25;;;33.75;;
32196;SDS011;18697;42.770;23.400;2023-04-03T16:15:03;56.83;;;30.13;;
32196;SDS011;18697;42.770;23.400;2023-04-03T16:17:29;109.07;;;55.25;;
32196;SDS011;18697;42.770;23.400;2023-04-03T16:19:55;127.75;;;53.70;;
32196;SDS011;18697;42.770;23.400;2023-04-03T16:22:21;131.45;;;52.80;;
32196;SDS011;18697;42.770;23.400;2023-04-03T16:24:49;118.38;;;51.65;;
32196;SDS011;18697;42.770;23.400;2023-04-03T16:27:16;60.88;;;33.88;;
32196;SDS011;18697;42.770;23.400;2023-04-03T16:29:41;45.70;;;28.33;;
32196;SDS011;18697;42.770;23.400;2023-04-03T16:34:32;33.22;;;22.45;;
32196;SDS011;18697;42.770;23.400;2023-04-03T16:36:58;33.35;;;23.85;;
32196;SDS011;18697;42.770;23.400;2023-04-03T16:39:24;43.88;;;25.27;;
32196;SDS011;18697;42.770;23.400;2023-04-03T16:41:49;41.65;;;24.08;;
32196;SDS011;18697;42.770;23.400;2023-04-03T16:46:40;27.15;;;18.02;;
32196;SDS011;18697;42.770;23.400;2023-04-03T16:49:05;34.38;;;22.58;;
32196;SDS011;18697;42.770;23.400;2023-04-03T16:51:31;44.42;;;24.63;;
32196;SDS011;18697;42.770;23.400;2023-04-03T16:53:57;60.65;;;27.73;;
32196;SDS011;18697;42.770;23.400;2023-04-03T16:56:22;55.95;;;27.63;;
32196;SDS011;18697;42.770;23.400;2023-04-03T16:58:48;31.17;;;17.88;;
32196;SDS011;18697;42.770;23.400;2023-04-03T17:01:14;20.90;;;12.88;;
32196;SDS011;18697;42.770;23.400;2023-04-03T17:03:42;20.05;;;12.90;;
32196;SDS011;18697;42.770;23.400;2023-04-03T17:06:08;32.63;;;25.98;;
32196;SDS011;18697;42.770;23.400;2023-04-03T17:08:41;18.70;;;12.98;;
32196;SDS011;18697;42.770;23.400;2023-04-03T17:11:10;31.83;;;19.92;;
32196;SDS011;18697;42.770;23.400;2023-04-03T17:13:36;38.97;;;24.23;;
32196;SDS011;18697;42.770;23.400;2023-04-03T17:16:02;52.92;;;29.73;;
32196;SDS011;18697;42.770;23.400;2023-04-03T17:18:32;59.03;;;29.67;;
32196;SDS011;18697;42.770;23.400;2023-04-03T17:20:58;39.25;;;24.00;;
32196;SDS011;18697;42.770;23.400;2023-04-03T17:23:25;29.85;;;18.17;;
32196;SDS011;18697;42.770;23.400;2023-04-03T17:25:53;45.35;;;30.38;;
32196;SDS011;18697;42.770;23.400;2023-04-03T17:28:19;34.38;;;22.90;;
32196;SDS011;18697;42.770;23.400;2023-04-03T17:30:46;18.98;;;11.70;;
32196;SDS011;18697;42.770;23.400;2023-04-03T17:33:12;16.33;;;9.20;;
32196;SDS011;18697;42.770;23.400;2023-04-03T17:38:03;21.50;;;10.77;;
32196;SDS011;18697;42.770;23.400;2023-04-03T17:40:32;21.65;;;12.40;;
32196;SDS011;18697;42.770;23.400;2023-04-03T17:42:57;16.23;;;9.50;;
32196;SDS011;18697;42.770;23.400;2023-04-03T17:45:22;14.45;;;10.20;;
32196;SDS011;18697;42.770;23.400;2023-04-03T17:47:50;12.48;;;7.85;;
32196;SDS011;18697;42.770;23.400;2023-04-03T17:50:16;6.95;;;5.00;;